createdAt,value
2022-12-24T02:22:19.335Z,81.25
2022-12-24T02:25:04.813Z,80.13
2022-12-24T02:27:46.411Z,79.94
2022-12-24T02:30:18.813Z,79.67
2022-12-24T02:33:00.585Z,79.34
2022-12-24T02:35:39.286Z,79.19
2022-12-24T02:38:32.755Z,79.06
2022-12-24T02:41:05.251Z,79.04
2022-12-24T02:43:40.069Z,78.94
2022-12-24T02:46:14.054Z,78.89
2022-12-24T02:48:42.137Z,78.79
2022-12-24T02:51:10.129Z,78.58
2022-12-24T02:53:37.475Z,78.40
2022-12-24T02:56:18.124Z,78.45
2022-12-24T02:58:56.949Z,78.50
2022-12-24T03:01:41.191Z,78.64
2022-12-24T03:04:16.170Z,78.82
2022-12-24T03:07:01.514Z,78.81
2022-12-24T03:09:36.341Z,78.58
2022-12-24T03:12:08.718Z,78.43
2022-12-24T03:14:35.759Z,78.40
2022-12-24T03:17:02.702Z,78.45
2022-12-24T03:19:29.956Z,78.51
2022-12-24T03:21:57.405Z,78.58
2022-12-24T03:24:24.388Z,78.61
2022-12-24T03:26:51.916Z,78.67
2022-12-24T03:29:18.871Z,78.59
2022-12-24T03:31:47.576Z,78.37
2022-12-24T03:34:16.968Z,78.17
2022-12-24T03:36:44.119Z,78.34
2022-12-24T03:39:11.348Z,78.33
2022-12-24T03:41:38.307Z,78.41
2022-12-24T03:44:05.233Z,78.64
2022-12-24T03:46:34.435Z,78.62
2022-12-24T03:49:01.416Z,78.44
2022-12-24T03:51:28.731Z,78.26
2022-12-24T03:53:56.615Z,78.20
2022-12-24T03:56:24.461Z,78.19
2022-12-24T03:58:51.713Z,78.35
2022-12-24T04:01:18.836Z,78.36
2022-12-24T04:03:46.024Z,78.41
2022-12-24T04:06:14.799Z,78.33
2022-12-24T04:08:41.821Z,78.19
2022-12-24T04:11:10.428Z,78.06
2022-12-24T04:13:37.479Z,78.02
2022-12-24T04:16:06.826Z,78.02
2022-12-24T04:18:41.297Z,78.02
2022-12-24T04:21:08.476Z,78.17
2022-12-24T04:23:36.689Z,78.27
2022-12-24T04:26:04.709Z,78.18
2022-12-24T04:28:32.260Z,78.13
2022-12-24T04:31:04.516Z,78.00
2022-12-24T04:33:32.506Z,77.94
2022-12-24T04:36:00.254Z,77.99
2022-12-24T04:38:27.808Z,77.92
2022-12-24T04:41:08.533Z,77.99
2022-12-24T04:43:35.626Z,77.92
2022-12-24T04:46:10.848Z,77.78
2022-12-24T04:48:40.375Z,77.62
2022-12-24T04:51:07.742Z,77.45
2022-12-24T04:53:39.583Z,77.53
2022-12-24T04:56:14.638Z,77.63
2022-12-24T04:58:41.690Z,77.91
2022-12-24T05:01:11.286Z,77.92
2022-12-24T05:03:38.327Z,77.95
2022-12-24T05:06:06.523Z,77.94
2022-12-24T05:08:34.458Z,77.78
2022-12-24T05:11:01.831Z,77.81
2022-12-24T05:13:37.717Z,77.82
2022-12-24T05:16:10.106Z,78.05
2022-12-24T05:18:37.193Z,78.16
2022-12-24T05:21:11.464Z,78.09
2022-12-24T05:23:57.717Z,78.24
2022-12-24T05:26:35.858Z,78.17
2022-12-24T05:29:05.950Z,78.12
2022-12-24T05:31:33.735Z,78.11
2022-12-24T05:34:01.352Z,78.22
2022-12-24T05:36:30.912Z,78.32
2022-12-24T05:38:57.914Z,78.44
2022-12-24T05:41:25.385Z,78.53
2022-12-24T05:43:54.978Z,78.52
2022-12-24T05:46:22.769Z,78.36
2022-12-24T05:48:50.191Z,78.44
2022-12-24T05:51:23.083Z,78.41
2022-12-24T05:53:52.822Z,78.59
2022-12-24T05:56:21.638Z,78.66
2022-12-24T05:58:49.542Z,78.72
2022-12-24T06:01:19.918Z,78.69
2022-12-24T06:03:47.116Z,78.49
2022-12-24T06:06:17.711Z,78.41
2022-12-24T06:08:44.699Z,78.47
2022-12-24T06:11:12.979Z,78.44
2022-12-24T06:13:40.458Z,78.54
2022-12-24T06:16:09.071Z,78.58
2022-12-24T06:18:36.283Z,78.52
2022-12-24T06:21:03.717Z,78.38
2022-12-24T06:23:31.605Z,78.43
2022-12-24T06:26:01.083Z,78.44
2022-12-24T06:28:29.168Z,78.46
2022-12-24T06:31:02.414Z,78.46
2022-12-24T06:33:31.046Z,78.65
2022-12-24T06:35:58.206Z,78.44
2022-12-24T06:38:25.233Z,78.31
2022-12-24T06:40:56.168Z,78.30
2022-12-24T06:43:23.316Z,78.38
2022-12-24T06:45:50.366Z,78.44
2022-12-24T06:48:17.313Z,78.51
2022-12-24T06:50:44.137Z,78.75
2022-12-24T06:53:13.346Z,78.67
2022-12-24T06:55:40.325Z,78.57
2022-12-24T06:58:07.336Z,78.36
2022-12-24T07:00:34.829Z,78.61
2022-12-24T07:03:01.678Z,78.81
2022-12-24T11:27:34.124Z,84.51
2022-12-24T11:30:20.627Z,82.53
2022-12-24T11:32:51.874Z,82.31
2022-12-24T11:35:23.714Z,82.18
2022-12-24T11:38:12.896Z,81.78
2022-12-24T11:40:43.971Z,81.29
2022-12-24T11:43:18.181Z,80.97
2022-12-24T11:45:50.217Z,80.60
2022-12-24T11:48:32.658Z,80.21
2022-12-24T11:51:04.183Z,79.79
2022-12-24T11:53:51.902Z,79.04
2022-12-24T11:56:45.998Z,78.64
2022-12-24T11:59:18.570Z,78.35
2022-12-24T12:01:50.709Z,78.12
2022-12-24T12:04:39.212Z,77.81
2022-12-24T12:07:43.446Z,77.58
2022-12-24T12:10:35.641Z,77.32
2022-12-24T12:13:11.210Z,77.15
2022-12-24T12:16:08.129Z,76.81
2022-12-24T12:18:39.722Z,76.55
2022-12-24T12:21:10.087Z,76.37
2022-12-24T12:23:40.759Z,76.33
2022-12-24T12:26:13.214Z,76.12
2022-12-24T12:28:49.078Z,75.92
2022-12-24T12:31:30.767Z,75.81
2022-12-24T12:34:03.155Z,75.78
2022-12-24T12:36:34.203Z,75.83
2022-12-24T12:39:01.062Z,75.96
2022-12-24T12:41:37.021Z,75.97
2022-12-24T12:44:19.031Z,75.86
2022-12-24T12:47:22.574Z,75.71
2022-12-24T12:50:08.752Z,75.52
2022-12-24T12:52:54.261Z,75.51
2022-12-24T12:55:30.531Z,75.56
2022-12-24T12:58:00.504Z,75.60
2022-12-24T13:00:31.219Z,75.58
2022-12-24T13:03:33.707Z,75.64
2022-12-24T13:06:13.678Z,75.48
2022-12-24T13:08:59.791Z,75.21
2022-12-24T13:11:50.298Z,75.15
2022-12-24T13:14:20.724Z,75.18
2022-12-24T13:17:14.015Z,75.39
2022-12-24T13:19:50.186Z,75.37
2022-12-24T13:22:17.754Z,75.43
2022-12-24T13:24:51.871Z,75.19
2022-12-24T13:27:32.585Z,75.06
2022-12-24T13:30:10.114Z,75.19
2022-12-24T13:32:39.336Z,75.03
2022-12-24T13:35:21.558Z,75.23
2022-12-24T13:37:48.978Z,75.23
2022-12-24T13:40:38.276Z,75.22
2022-12-24T13:43:05.686Z,75.26
2022-12-24T13:45:38.812Z,75.24
2022-12-24T13:48:05.648Z,75.53
2022-12-24T13:50:41.135Z,75.52
2022-12-24T13:53:38.325Z,75.55
2022-12-24T13:56:14.236Z,75.70
2022-12-24T13:58:43.136Z,75.65
2022-12-24T14:01:15.350Z,75.41
2022-12-24T14:03:46.551Z,75.44
2022-12-24T14:06:14.407Z,75.64
2022-12-24T14:08:44.006Z,75.78
2022-12-24T14:11:16.218Z,75.76
2022-12-24T14:13:43.044Z,75.77
2022-12-24T14:16:14.965Z,75.71
2022-12-24T14:18:43.159Z,75.66
2022-12-24T14:21:27.906Z,75.62
2022-12-24T14:24:04.628Z,75.84
2022-12-24T14:26:34.361Z,75.90
2022-12-24T14:29:03.884Z,76.06
2022-12-24T14:31:30.839Z,76.11
2022-12-24T14:34:10.203Z,75.98
2022-12-24T14:36:37.564Z,75.70
2022-12-24T14:39:06.732Z,75.74
2022-12-24T14:41:46.054Z,75.87
2022-12-24T14:44:18.665Z,76.00
2022-12-24T14:46:51.634Z,76.11
2022-12-24T14:49:27.571Z,76.09
2022-12-24T14:52:37.843Z,76.27
2022-12-24T14:55:22.543Z,76.01
2022-12-24T14:57:52.656Z,75.77
2022-12-24T15:00:20.400Z,75.75
2022-12-24T15:02:48.556Z,75.85
2022-12-24T19:20:17.108Z,87.20
2022-12-24T19:22:44.603Z,85.82
2022-12-24T19:25:12.708Z,85.75
2022-12-24T19:27:41.144Z,85.77
2022-12-24T19:30:09.180Z,85.43
2022-12-24T19:32:36.103Z,85.07
2022-12-24T19:35:05.696Z,84.62
2022-12-24T19:37:32.668Z,84.48
2022-12-24T19:40:03.073Z,84.32
2022-12-24T19:42:33.563Z,84.12
2022-12-24T19:45:00.645Z,84.02
2022-12-24T19:47:29.973Z,83.32
2022-12-24T19:49:59.251Z,82.75
2022-12-24T19:52:26.236Z,82.40
2022-12-24T19:54:53.336Z,82.10
2022-12-24T19:57:20.279Z,81.88
2022-12-24T19:59:47.371Z,81.63
2022-12-24T20:02:14.664Z,81.26
2022-12-24T20:04:41.934Z,81.18
2022-12-24T20:07:09.086Z,81.15
2022-12-24T20:09:37.157Z,81.05
2022-12-24T20:12:04.611Z,81.08
2022-12-24T20:14:31.561Z,80.61
2022-12-24T20:16:58.590Z,80.35
2022-12-24T20:19:25.577Z,80.18
2022-12-24T20:21:52.504Z,80.16
2022-12-24T20:24:19.948Z,80.23
2022-12-24T20:26:47.098Z,80.28
2022-12-24T20:29:14.452Z,80.18
2022-12-24T20:31:41.549Z,79.93
2022-12-24T20:34:09.105Z,79.89
2022-12-24T20:36:37.486Z,79.94
2022-12-24T20:39:05.658Z,79.88
2022-12-24T20:41:34.753Z,79.81
2022-12-24T20:44:05.029Z,79.80
2022-12-24T20:46:34.393Z,79.70
2022-12-24T20:49:01.494Z,79.42
2022-12-24T20:51:28.870Z,79.48
2022-12-24T20:53:58.047Z,79.61
2022-12-24T20:56:25.245Z,79.68
2022-12-24T20:58:52.613Z,79.76
2022-12-24T21:01:25.230Z,79.73
2022-12-24T21:03:54.113Z,79.46
2022-12-24T21:06:22.094Z,79.44
2022-12-24T21:08:49.605Z,79.41
2022-12-24T21:11:35.617Z,79.53
2022-12-24T21:14:03.191Z,79.41
2022-12-24T21:16:31.561Z,79.25
2022-12-24T21:18:58.702Z,79.08
2022-12-24T21:21:25.913Z,79.05
2022-12-24T21:23:52.985Z,79.11
2022-12-24T21:26:21.325Z,79.25
2022-12-24T21:28:49.126Z,79.51
2022-12-24T21:31:18.452Z,79.55
2022-12-24T21:33:45.840Z,79.47
2022-12-24T21:36:13.155Z,79.46
2022-12-24T21:38:40.049Z,79.81
2022-12-24T21:41:18.005Z,80.01
2022-12-24T21:43:45.870Z,80.38
2022-12-24T21:46:14.805Z,80.58
2022-12-24T21:49:00.791Z,80.63
2022-12-24T21:51:28.006Z,81.12
2022-12-24T21:54:13.817Z,81.56
2022-12-24T21:56:59.533Z,81.78
2022-12-24T21:59:27.356Z,82.25
2022-12-24T22:01:55.646Z,82.86
2022-12-24T22:04:23.391Z,83.12
2022-12-24T22:07:09.267Z,83.48
2022-12-24T22:09:56.593Z,83.66
2022-12-24T22:12:23.842Z,83.51
2022-12-24T22:14:51.403Z,83.35
2022-12-24T22:17:24.465Z,83.26
2022-12-24T22:19:53.388Z,83.24
2022-12-24T22:22:20.643Z,83.24
2022-12-24T22:24:47.576Z,83.09
2022-12-24T22:27:14.519Z,82.89
2022-12-24T22:29:41.462Z,82.73
2022-12-24T22:32:08.418Z,82.68
2022-12-24T22:34:36.311Z,82.60
2022-12-24T22:37:03.320Z,82.61
2022-12-24T22:39:30.184Z,82.54
2022-12-24T22:41:58.382Z,82.43
2022-12-24T22:44:25.694Z,82.42
2022-12-24T22:46:54.546Z,82.37
2022-12-24T22:49:21.431Z,82.42
2022-12-24T22:51:48.316Z,82.51
2022-12-24T22:54:16.137Z,82.26
2022-12-24T22:56:43.027Z,81.94
2022-12-24T22:59:12.421Z,81.84
2022-12-24T23:01:43.359Z,81.73
2022-12-24T23:04:11.243Z,81.86
2022-12-24T23:06:38.384Z,81.67
2022-12-24T23:09:06.505Z,81.41
2022-12-24T23:11:33.461Z,81.17
2022-12-24T23:14:19.236Z,81.19
2022-12-24T23:16:46.194Z,81.08
2022-12-24T23:19:13.158Z,81.12
2022-12-24T23:21:42.479Z,81.08
2022-12-24T23:24:09.946Z,80.84
2022-12-24T23:26:37.033Z,80.62
2022-12-24T23:29:03.988Z,80.64
2022-12-24T23:31:34.932Z,80.63
2022-12-24T23:34:02.326Z,80.75
2022-12-24T23:36:29.515Z,80.80
2022-12-24T23:38:57.731Z,80.67
2022-12-24T23:41:25.056Z,80.60
2022-12-24T23:43:52.110Z,80.54
2022-12-24T23:46:19.522Z,80.60
2022-12-24T23:48:46.908Z,80.65
2022-12-24T23:51:15.646Z,80.53
2022-12-24T23:53:42.651Z,80.49
2022-12-24T23:56:11.599Z,80.35
2022-12-24T23:58:39.830Z,80.26
